Time,TemperatureF,DewpointF,PressureIn,WindDirection,WindDirectionDegrees,WindSpeedMPH,WindSpeedGustMPH,Humidity,HourlyPrecipIn,Conditions,Clouds,dailyrainin,SoftwareType,DateUTC
2013-08-06 00:32:00,65.0,64.0,-100.00,SSE,150,0.0,2.0,94,-99.99,,,-99.99,,2013-08-06 05:32:00,
2013-08-06 00:43:00,65.0,64.0,-100.00,SSE,150,0.0,2.0,94,-99.99,,,-99.99,,2013-08-06 05:43:00,
2013-08-06 00:53:00,65.0,64.0,-100.00,SSE,150,0.0,2.0,94,-99.99,,,-99.99,,2013-08-06 05:53:00,
2013-08-06 01:32:00,65.0,64.0,-100.00,South,180,1.0,1.0,95,-99.99,,,-99.99,,2013-08-06 06:32:00,
2013-08-06 01:43:00,65.0,64.0,-100.00,South,180,1.0,1.0,95,-99.99,,,-99.99,,2013-08-06 06:43:00,
2013-08-06 01:52:00,65.0,64.0,-100.00,South,180,1.0,1.0,95,-99.99,,,-99.99,,2013-08-06 06:52:00,
2013-08-06 02:32:00,67.0,65.0,-100.00,SSW,200,4.0,7.0,95,-99.99,,,-99.99,,2013-08-06 07:32:00,
2013-08-06 02:43:00,67.0,65.0,-100.00,SSW,200,4.0,7.0,95,-99.99,,,-99.99,,2013-08-06 07:43:00,
2013-08-06 02:53:00,67.0,65.0,-100.00,SSW,200,4.0,7.0,95,-99.99,,,-99.99,,2013-08-06 07:53:00,
2013-08-06 03:33:00,67.0,65.0,-100.00,SW,220,4.0,8.0,95,-99.99,,,-99.99,,2013-08-06 08:33:00,
2013-08-06 03:43:00,67.0,65.0,-100.00,SW,220,4.0,8.0,95,-99.99,,,-99.99,,2013-08-06 08:43:00,
2013-08-06 03:52:00,67.0,65.0,-100.00,SW,220,4.0,8.0,95,-99.99,,,-99.99,,2013-08-06 08:52:00,
2013-08-06 04:32:00,67.0,66.0,-100.00,WSW,240,3.0,7.0,95,-99.99,,,-99.99,,2013-08-06 09:32:00,
2013-08-06 04:43:00,67.0,66.0,-100.00,WSW,240,3.0,7.0,95,-99.99,,,-99.99,,2013-08-06 09:43:00,
2013-08-06 04:52:00,67.0,66.0,-100.00,WSW,240,3.0,7.0,95,-99.99,,,-99.99,,2013-08-06 09:52:00,
2013-08-06 05:32:00,67.0,66.0,-100.00,West,270,3.0,8.0,95,-99.99,,,-99.99,,2013-08-06 10:32:00,
2013-08-06 05:43:00,67.0,66.0,-100.00,West,270,3.0,8.0,95,-99.99,,,-99.99,,2013-08-06 10:43:00,
2013-08-06 05:52:00,67.0,66.0,-100.00,West,270,3.0,8.0,95,-99.99,,,-99.99,,2013-08-06 10:52:00,
2013-08-06 06:32:00,67.0,65.0,-100.00,NW,315,0.0,1.0,95,-99.99,,,-99.99,,2013-08-06 11:32:00,
2013-08-06 06:43:00,67.0,65.0,-100.00,NW,315,0.0,1.0,95,-99.99,,,-99.99,,2013-08-06 11:43:00,
2013-08-06 06:53:00,67.0,65.0,-100.00,NW,315,0.0,1.0,95,-99.99,,,-99.99,,2013-08-06 11:53:00,
2013-08-06 07:32:00,67.0,65.0,-100.00,SSE,155,0.0,1.0,95,-99.99,,,-99.99,,2013-08-06 12:32:00,
2013-08-06 07:43:00,67.0,65.0,-100.00,SSE,155,0.0,1.0,95,-99.99,,,-99.99,,2013-08-06 12:43:00,
2013-08-06 07:52:00,67.0,65.0,-100.00,SSE,155,0.0,1.0,95,-99.99,,,-99.99,,2013-08-06 12:52:00,
2013-08-06 08:32:00,67.0,66.0,-100.00,SSE,165,3.0,4.0,95,-99.99,,,-99.99,,2013-08-06 13:32:00,
2013-08-06 08:42:00,67.0,66.0,-100.00,SSE,165,3.0,4.0,95,-99.99,,,-99.99,,2013-08-06 13:42:00,
2013-08-06 08:53:00,67.0,66.0,-100.00,SSE,165,3.0,4.0,95,-99.99,,,-99.99,,2013-08-06 13:53:00,
2013-08-06 09:32:00,70.0,65.0,-100.00,South,175,4.0,9.0,84,-99.99,,,-99.99,,2013-08-06 14:32:00,
2013-08-06 09:42:00,70.0,65.0,-100.00,South,175,4.0,9.0,84,-99.99,,,-99.99,,2013-08-06 14:42:00,
2013-08-06 09:53:00,70.0,65.0,-100.00,South,175,4.0,9.0,84,-99.99,,,-99.99,,2013-08-06 14:53:00,
2013-08-06 10:33:00,73.0,66.0,-100.00,SSW,210,6.0,9.0,78,-99.99,,,-99.99,,2013-08-06 15:33:00,
2013-08-06 10:44:00,73.0,66.0,-100.00,SSW,210,6.0,9.0,78,-99.99,,,-99.99,,2013-08-06 15:44:00,
2013-08-06 10:52:00,73.0,66.0,-100.00,SSW,210,6.0,9.0,78,-99.99,,,-99.99,,2013-08-06 15:52:00,
2013-08-06 11:32:00,73.0,67.0,-100.00,SW,230,6.0,11.0,79,-99.99,,,-99.99,,2013-08-06 16:32:00,
2013-08-06 11:43:00,73.0,67.0,-100.00,SW,230,6.0,11.0,79,-99.99,,,-99.99,,2013-08-06 16:43:00,
2013-08-06 11:52:00,73.0,67.0,-100.00,SW,230,6.0,11.0,79,-99.99,,,-99.99,,2013-08-06 16:52:00,
2013-08-06 12:32:00,76.0,66.0,-100.00,South,180,6.0,9.0,70,-99.99,,,-99.99,,2013-08-06 17:32:00,
2013-08-06 12:44:00,76.0,66.0,-100.00,South,180,6.0,9.0,70,-99.99,,,-99.99,,2013-08-06 17:44:00,
2013-08-06 12:52:00,76.0,66.0,-100.00,South,180,6.0,9.0,70,-99.99,,,-99.99,,2013-08-06 17:52:00,
2013-08-06 13:32:00,79.0,64.0,-100.00,South,170,2.0,9.0,61,-99.99,,,-99.99,,2013-08-06 18:32:00,
2013-08-06 13:43:00,79.0,64.0,-100.00,South,170,2.0,9.0,61,-99.99,,,-99.99,,2013-08-06 18:43:00,
2013-08-06 13:52:00,79.0,64.0,-100.00,South,170,2.0,9.0,61,-99.99,,,-99.99,,2013-08-06 18:52:00,
2013-08-06 14:32:00,79.0,66.0,-100.00,SSW,210,9.0,13.0,66,-99.99,,,-99.99,,2013-08-06 19:32:00,
2013-08-06 14:42:00,79.0,66.0,-100.00,SSW,210,9.0,13.0,66,-99.99,,,-99.99,,2013-08-06 19:42:00,
2013-08-06 14:52:00,79.0,66.0,-100.00,SSW,210,9.0,13.0,66,-99.99,,,-99.99,,2013-08-06 19:52:00,
2013-08-06 15:32:00,82.0,66.0,-100.00,SSW,205,5.0,16.0,59,-99.99,,,-99.99,,2013-08-06 20:32:00,
2013-08-06 15:44:00,82.0,66.0,-100.00,SSW,205,5.0,16.0,59,-99.99,,,-99.99,,2013-08-06 20:44:00,
2013-08-06 15:52:00,82.0,66.0,-100.00,SSW,205,5.0,16.0,59,-99.99,,,-99.99,,2013-08-06 20:52:00,
2013-08-06 16:32:00,81.0,65.0,-100.00,SW,220,6.0,12.0,59,-99.99,,,-99.99,,2013-08-06 21:32:00,
2013-08-06 16:43:00,81.0,65.0,-100.00,SW,220,6.0,12.0,59,-99.99,,,-99.99,,2013-08-06 21:43:00,
2013-08-06 16:52:00,81.0,65.0,-100.00,SW,220,6.0,12.0,59,-99.99,,,-99.99,,2013-08-06 21:52:00,
2013-08-06 17:32:00,80.0,66.0,-100.00,South,190,5.0,11.0,62,-99.99,,,-99.99,,2013-08-06 22:32:00,
2013-08-06 17:43:00,80.0,66.0,-100.00,South,190,5.0,11.0,62,-99.99,,,-99.99,,2013-08-06 22:43:00,
2013-08-06 17:52:00,80.0,66.0,-100.00,South,190,5.0,11.0,62,-99.99,,,-99.99,,2013-08-06 22:52:00,
2013-08-06 18:33:00,81.0,65.0,-100.00,SW,220,8.0,12.0,59,-99.99,,,-99.99,,2013-08-06 23:33:00,
2013-08-06 18:43:00,81.0,65.0,-100.00,SW,220,8.0,12.0,59,-99.99,,,-99.99,,2013-08-06 23:43:00,
2013-08-06 18:52:00,81.0,65.0,-100.00,SW,220,8.0,12.0,59,-99.99,,,-99.99,,2013-08-06 23:52:00,
2013-08-06 19:32:00,80.0,67.0,-100.00,South,185,6.0,8.0,66,-99.99,,,-99.99,,2013-08-07 00:32:00,
2013-08-06 19:43:00,80.0,67.0,-100.00,South,185,6.0,8.0,66,-99.99,,,-99.99,,2013-08-07 00:43:00,
2013-08-06 19:52:00,80.0,67.0,-100.00,South,185,6.0,8.0,66,-99.99,,,-99.99,,2013-08-07 00:52:00,
2013-08-06 20:32:00,77.0,69.0,-100.00,South,175,4.0,7.0,76,-99.99,,,-99.99,,2013-08-07 01:32:00,
2013-08-06 20:43:00,77.0,69.0,-100.00,South,175,4.0,7.0,76,-99.99,,,-99.99,,2013-08-07 01:43:00,
2013-08-06 20:52:00,77.0,69.0,-100.00,South,175,4.0,7.0,76,-99.99,,,-99.99,,2013-08-07 01:52:00,
2013-08-06 21:33:00,74.0,69.0,-100.00,South,170,6.0,10.0,85,-99.99,,,-99.99,,2013-08-07 02:33:00,
2013-08-06 21:43:00,74.0,69.0,-100.00,South,170,6.0,10.0,85,-99.99,,,-99.99,,2013-08-07 02:43:00,
2013-08-06 21:53:00,74.0,69.0,-100.00,South,170,6.0,10.0,85,-99.99,,,-99.99,,2013-08-07 02:53:00,
2013-08-06 22:32:00,72.0,70.0,-100.00,South,180,5.0,8.0,91,-99.99,,,-99.99,,2013-08-07 03:32:00,
2013-08-06 22:43:00,72.0,70.0,-100.00,South,180,5.0,8.0,91,-99.99,,,-99.99,,2013-08-07 03:43:00,
2013-08-06 22:52:00,72.0,70.0,-100.00,South,180,5.0,8.0,91,-99.99,,,-99.99,,2013-08-07 03:52:00,